<?xml version="1.0" encoding="UTF-8" standalone="no" ?>
<gpx xmlns="http://www.topografix.com/GPX/1/1" xmlns:xsi="http://www.w3.org/2001/XMLSchema-instance" xsi:schemaLocation="http://www.topografix.com/GPX/1/1 http://www.topografix.com/GPX/1/1/gpx.xsd" version="1.1" creator="VisuGPX - https://www.visugpx.com">
  <metadata>
    <name>10867660-Chevauchées 2022 J1 véron</name>
  </metadata>
  <wpt lat="47.17721" lon="0.16847">
    <ele>31</ele>
    <name><![CDATA[]]></name>
    <desc><![CDATA[]]></desc>
  </wpt>
  <trk>
    <name><![CDATA[10867660-Chevauchées 2022 J1 véron]]></name>
    <trkseg>
      <trkpt lat="47.22467" lon="0.12645">
        <ele>32</ele>
        <time>2022-01-07T18:48:24Z</time>
      </trkpt>
      <trkpt lat="47.22377" lon="0.12754">
        <ele>33</ele>
        <time>2022-01-07T18:49:57Z</time>
      </trkpt>
      <trkpt lat="47.22272" lon="0.12581">
        <ele>30</ele>
        <time>2022-01-07T18:52:03Z</time>
      </trkpt>
      <trkpt lat="47.22191" lon="0.12684">
        <ele>32</ele>
        <time>2022-01-07T18:53:29Z</time>
      </trkpt>
      <trkpt lat="47.22088" lon="0.12542">
        <ele>32</ele>
        <time>2022-01-07T18:55:22Z</time>
      </trkpt>
      <trkpt lat="47.21922" lon="0.12409">
        <ele>32</ele>
        <time>2022-01-07T18:57:53Z</time>
      </trkpt>
      <trkpt lat="47.21881" lon="0.12261">
        <ele>31</ele>
        <time>2022-01-07T18:59:20Z</time>
      </trkpt>
      <trkpt lat="47.21856" lon="0.12162">
        <ele>32</ele>
        <time>2022-01-07T19:00:18Z</time>
      </trkpt>
      <trkpt lat="47.2183" lon="0.12117">
        <ele>32</ele>
        <time>2022-01-07T19:00:50Z</time>
      </trkpt>
      <trkpt lat="47.21803" lon="0.12143">
        <ele>31</ele>
        <time>2022-01-07T19:01:16Z</time>
      </trkpt>
      <trkpt lat="47.21696" lon="0.12178">
        <ele>30</ele>
        <time>2022-01-07T19:02:44Z</time>
      </trkpt>
      <trkpt lat="47.21709" lon="0.12376">
        <ele>32</ele>
        <time>2022-01-07T19:04:32Z</time>
      </trkpt>
      <trkpt lat="47.21726" lon="0.12508">
        <ele>31</ele>
        <time>2022-01-07T19:05:45Z</time>
      </trkpt>
      <trkpt lat="47.21629" lon="0.12746">
        <ele>32</ele>
        <time>2022-01-07T19:08:16Z</time>
      </trkpt>
      <trkpt lat="47.21549" lon="0.12699">
        <ele>32</ele>
        <time>2022-01-07T19:09:25Z</time>
      </trkpt>
      <trkpt lat="47.21237" lon="0.12418">
        <ele>31</ele>
        <time>2022-01-07T19:14:18Z</time>
      </trkpt>
      <trkpt lat="47.21126" lon="0.12267">
        <ele>33</ele>
        <time>2022-01-07T19:16:19Z</time>
      </trkpt>
      <trkpt lat="47.21102" lon="0.1226">
        <ele>33</ele>
        <time>2022-01-07T19:16:38Z</time>
      </trkpt>
      <trkpt lat="47.20979" lon="0.12449">
        <ele>33</ele>
        <time>2022-01-07T19:19:01Z</time>
      </trkpt>
      <trkpt lat="47.21088" lon="0.12281">
        <ele>33</ele>
        <time>2022-01-07T19:21:07Z</time>
      </trkpt>
      <trkpt lat="47.21044" lon="0.1218">
        <ele>34</ele>
        <time>2022-01-07T19:22:12Z</time>
      </trkpt>
      <trkpt lat="47.2088" lon="0.11898">
        <ele>33</ele>
        <time>2022-01-07T19:25:34Z</time>
      </trkpt>
      <trkpt lat="47.20997" lon="0.11595">
        <ele>34</ele>
        <time>2022-01-07T19:28:44Z</time>
      </trkpt>
      <trkpt lat="47.20839" lon="0.11311">
        <ele>30</ele>
        <time>2022-01-07T19:32:03Z</time>
      </trkpt>
      <trkpt lat="47.20624" lon="0.11713">
        <ele>30</ele>
        <time>2022-01-07T19:36:42Z</time>
      </trkpt>
      <trkpt lat="47.20337" lon="0.12259">
        <ele>28</ele>
        <time>2022-01-07T19:42:57Z</time>
      </trkpt>
      <trkpt lat="47.20138" lon="0.11967">
        <ele>38</ele>
        <time>2022-01-07T19:46:42Z</time>
      </trkpt>
      <trkpt lat="47.198" lon="0.11657">
        <ele>31</ele>
        <time>2022-01-07T19:52:01Z</time>
      </trkpt>
      <trkpt lat="47.1969" lon="0.11751">
        <ele>30</ele>
        <time>2022-01-07T19:53:43Z</time>
      </trkpt>
      <trkpt lat="47.19581" lon="0.11819">
        <ele>33</ele>
        <time>2022-01-07T19:55:18Z</time>
      </trkpt>
      <trkpt lat="47.19404" lon="0.12001">
        <ele>33</ele>
        <time>2022-01-07T19:58:10Z</time>
      </trkpt>
      <trkpt lat="47.1937" lon="0.12062">
        <ele>33</ele>
        <time>2022-01-07T19:58:53Z</time>
      </trkpt>
      <trkpt lat="47.19291" lon="0.12279">
        <ele>34</ele>
        <time>2022-01-07T20:01:07Z</time>
      </trkpt>
      <trkpt lat="47.19074" lon="0.12835">
        <ele>31</ele>
        <time>2022-01-07T20:06:56Z</time>
      </trkpt>
      <trkpt lat="47.18916" lon="0.12729">
        <ele>33</ele>
        <time>2022-01-07T20:09:15Z</time>
      </trkpt>
      <trkpt lat="47.18825" lon="0.12693">
        <ele>33</ele>
        <time>2022-01-07T20:10:31Z</time>
      </trkpt>
      <trkpt lat="47.18721" lon="0.12622">
        <ele>35</ele>
        <time>2022-01-07T20:12:03Z</time>
      </trkpt>
      <trkpt lat="47.18588" lon="0.12569">
        <ele>33</ele>
        <time>2022-01-07T20:13:53Z</time>
      </trkpt>
      <trkpt lat="47.18556" lon="0.12527">
        <ele>34</ele>
        <time>2022-01-07T20:14:27Z</time>
      </trkpt>
      <trkpt lat="47.18514" lon="0.12521">
        <ele>34</ele>
        <time>2022-01-07T20:15:01Z</time>
      </trkpt>
      <trkpt lat="47.1848" lon="0.12627">
        <ele>34</ele>
        <time>2022-01-07T20:16:05Z</time>
      </trkpt>
      <trkpt lat="47.18446" lon="0.12791">
        <ele>37</ele>
        <time>2022-01-07T20:17:38Z</time>
      </trkpt>
      <trkpt lat="47.18435" lon="0.12899">
        <ele>36</ele>
        <time>2022-01-07T20:18:37Z</time>
      </trkpt>
      <trkpt lat="47.18394" lon="0.13063">
        <ele>35</ele>
        <time>2022-01-07T20:20:13Z</time>
      </trkpt>
      <trkpt lat="47.18382" lon="0.13208">
        <ele>34</ele>
        <time>2022-01-07T20:21:32Z</time>
      </trkpt>
      <trkpt lat="47.18346" lon="0.13529">
        <ele>32</ele>
        <time>2022-01-07T20:24:29Z</time>
      </trkpt>
      <trkpt lat="47.18291" lon="0.13916">
        <ele>31</ele>
        <time>2022-01-07T20:28:04Z</time>
      </trkpt>
      <trkpt lat="47.18237" lon="0.14279">
        <ele>31</ele>
        <time>2022-01-07T20:31:26Z</time>
      </trkpt>
      <trkpt lat="47.18196" lon="0.14541">
        <ele>32</ele>
        <time>2022-01-07T20:33:53Z</time>
      </trkpt>
      <trkpt lat="47.18171" lon="0.14731">
        <ele>34</ele>
        <time>2022-01-07T20:35:38Z</time>
      </trkpt>
      <trkpt lat="47.18134" lon="0.15053">
        <ele>32</ele>
        <time>2022-01-07T20:38:36Z</time>
      </trkpt>
      <trkpt lat="47.18089" lon="0.1534">
        <ele>32</ele>
        <time>2022-01-07T20:41:16Z</time>
      </trkpt>
      <trkpt lat="47.18101" lon="0.15389">
        <ele>33</ele>
        <time>2022-01-07T20:41:44Z</time>
      </trkpt>
      <trkpt lat="47.1812" lon="0.15528">
        <ele>35</ele>
        <time>2022-01-07T20:43:02Z</time>
      </trkpt>
      <trkpt lat="47.18097" lon="0.15527">
        <ele>34</ele>
        <time>2022-01-07T20:43:20Z</time>
      </trkpt>
      <trkpt lat="47.18074" lon="0.15769">
        <ele>34</ele>
        <time>2022-01-07T20:45:33Z</time>
      </trkpt>
      <trkpt lat="47.18019" lon="0.16026">
        <ele>34</ele>
        <time>2022-01-07T20:48:00Z</time>
      </trkpt>
      <trkpt lat="47.1794" lon="0.1627">
        <ele>32</ele>
        <time>2022-01-07T20:50:27Z</time>
      </trkpt>
      <trkpt lat="47.1786" lon="0.16513">
        <ele>32</ele>
        <time>2022-01-07T20:52:54Z</time>
      </trkpt>
      <trkpt lat="47.17794" lon="0.16671">
        <ele>31</ele>
        <time>2022-01-07T20:54:35Z</time>
      </trkpt>
      <trkpt lat="47.17728" lon="0.16823">
        <ele>31</ele>
        <time>2022-01-07T20:56:13Z</time>
      </trkpt>
      <trkpt lat="47.17633" lon="0.17128">
        <ele>33</ele>
        <time>2022-01-07T20:59:15Z</time>
      </trkpt>
      <trkpt lat="47.17566" lon="0.17409">
        <ele>34</ele>
        <time>2022-01-07T21:01:57Z</time>
      </trkpt>
      <trkpt lat="47.17529" lon="0.17621">
        <ele>35</ele>
        <time>2022-01-07T21:03:57Z</time>
      </trkpt>
      <trkpt lat="47.17494" lon="0.17741">
        <ele>31</ele>
        <time>2022-01-07T21:05:08Z</time>
      </trkpt>
      <trkpt lat="47.17477" lon="0.1789">
        <ele>32</ele>
        <time>2022-01-07T21:06:30Z</time>
      </trkpt>
      <trkpt lat="47.17462" lon="0.18197">
        <ele>31</ele>
        <time>2022-01-07T21:09:17Z</time>
      </trkpt>
      <trkpt lat="47.17452" lon="0.18251">
        <ele>31</ele>
        <time>2022-01-07T21:09:48Z</time>
      </trkpt>
      <trkpt lat="47.17455" lon="0.18362">
        <ele>32</ele>
        <time>2022-01-07T21:10:48Z</time>
      </trkpt>
      <trkpt lat="47.17441" lon="0.18429">
        <ele>31</ele>
        <time>2022-01-07T21:11:26Z</time>
      </trkpt>
      <trkpt lat="47.17438" lon="0.18696">
        <ele>31</ele>
        <time>2022-01-07T21:13:52Z</time>
      </trkpt>
      <trkpt lat="47.17678" lon="0.18799">
        <ele>32</ele>
        <time>2022-01-07T21:17:12Z</time>
      </trkpt>
      <trkpt lat="47.17679" lon="0.18888">
        <ele>32</ele>
        <time>2022-01-07T21:18:00Z</time>
      </trkpt>
      <trkpt lat="47.1777" lon="0.18931">
        <ele>32</ele>
        <time>2022-01-07T21:19:17Z</time>
      </trkpt>
      <trkpt lat="47.17901" lon="0.18969">
        <ele>38</ele>
        <time>2022-01-07T21:21:04Z</time>
      </trkpt>
      <trkpt lat="47.17954" lon="0.19001">
        <ele>43</ele>
        <time>2022-01-07T21:21:50Z</time>
      </trkpt>
      <trkpt lat="47.17967" lon="0.19033">
        <ele>45</ele>
        <time>2022-01-07T21:22:10Z</time>
      </trkpt>
      <trkpt lat="47.17962" lon="0.19119">
        <ele>44</ele>
        <time>2022-01-07T21:22:57Z</time>
      </trkpt>
      <trkpt lat="47.18042" lon="0.19163">
        <ele>59</ele>
        <time>2022-01-07T21:24:05Z</time>
      </trkpt>
      <trkpt lat="47.1807" lon="0.19207">
        <ele>63</ele>
        <time>2022-01-07T21:24:38Z</time>
      </trkpt>
      <trkpt lat="47.18161" lon="0.19286">
        <ele>64</ele>
        <time>2022-01-07T21:26:03Z</time>
      </trkpt>
      <trkpt lat="47.18342" lon="0.19029">
        <ele>65</ele>
        <time>2022-01-07T21:29:24Z</time>
      </trkpt>
      <trkpt lat="47.18432" lon="0.18929">
        <ele>63</ele>
        <time>2022-01-07T21:30:54Z</time>
      </trkpt>
      <trkpt lat="47.18596" lon="0.18841">
        <ele>59</ele>
        <time>2022-01-07T21:33:14Z</time>
      </trkpt>
      <trkpt lat="47.18592" lon="0.18988">
        <ele>61</ele>
        <time>2022-01-07T21:34:34Z</time>
      </trkpt>
      <trkpt lat="47.18613" lon="0.1903">
        <ele>61</ele>
        <time>2022-01-07T21:35:03Z</time>
      </trkpt>
      <trkpt lat="47.1867" lon="0.19154">
        <ele>60</ele>
        <time>2022-01-07T21:36:24Z</time>
      </trkpt>
      <trkpt lat="47.18709" lon="0.19258">
        <ele>62</ele>
        <time>2022-01-07T21:37:29Z</time>
      </trkpt>
      <trkpt lat="47.1877" lon="0.19281">
        <ele>61</ele>
        <time>2022-01-07T21:38:19Z</time>
      </trkpt>
      <trkpt lat="47.18821" lon="0.19282">
        <ele>62</ele>
        <time>2022-01-07T21:39:00Z</time>
      </trkpt>
      <trkpt lat="47.18996" lon="0.19329">
        <ele>64</ele>
        <time>2022-01-07T21:41:22Z</time>
      </trkpt>
      <trkpt lat="47.19004" lon="0.19289">
        <ele>64</ele>
        <time>2022-01-07T21:41:45Z</time>
      </trkpt>
      <trkpt lat="47.19039" lon="0.18803">
        <ele>55</ele>
        <time>2022-01-07T21:46:11Z</time>
      </trkpt>
      <trkpt lat="47.19219" lon="0.18822">
        <ele>55</ele>
        <time>2022-01-07T21:48:36Z</time>
      </trkpt>
      <trkpt lat="47.19271" lon="0.18844">
        <ele>55</ele>
        <time>2022-01-07T21:49:19Z</time>
      </trkpt>
      <trkpt lat="47.19293" lon="0.18835">
        <ele>54</ele>
        <time>2022-01-07T21:49:37Z</time>
      </trkpt>
      <trkpt lat="47.19334" lon="0.18796">
        <ele>53</ele>
        <time>2022-01-07T21:50:16Z</time>
      </trkpt>
      <trkpt lat="47.19399" lon="0.18761">
        <ele>48</ele>
        <time>2022-01-07T21:51:12Z</time>
      </trkpt>
      <trkpt lat="47.19433" lon="0.18738">
        <ele>46</ele>
        <time>2022-01-07T21:51:42Z</time>
      </trkpt>
      <trkpt lat="47.19405" lon="0.18617">
        <ele>45</ele>
        <time>2022-01-07T21:52:51Z</time>
      </trkpt>
      <trkpt lat="47.19367" lon="0.18622">
        <ele>47</ele>
        <time>2022-01-07T21:53:22Z</time>
      </trkpt>
      <trkpt lat="47.19349" lon="0.1864">
        <ele>48</ele>
        <time>2022-01-07T21:53:39Z</time>
      </trkpt>
      <trkpt lat="47.19326" lon="0.1865">
        <ele>49</ele>
        <time>2022-01-07T21:53:58Z</time>
      </trkpt>
      <trkpt lat="47.19319" lon="0.18693">
        <ele>50</ele>
        <time>2022-01-07T21:54:22Z</time>
      </trkpt>
      <trkpt lat="47.19304" lon="0.18701">
        <ele>51</ele>
        <time>2022-01-07T21:54:35Z</time>
      </trkpt>
      <trkpt lat="47.19285" lon="0.18707">
        <ele>52</ele>
        <time>2022-01-07T21:54:51Z</time>
      </trkpt>
      <trkpt lat="47.19288" lon="0.18728">
        <ele>52</ele>
        <time>2022-01-07T21:55:02Z</time>
      </trkpt>
      <trkpt lat="47.19251" lon="0.18735">
        <ele>54</ele>
        <time>2022-01-07T21:55:32Z</time>
      </trkpt>
      <trkpt lat="47.19223" lon="0.18467">
        <ele>52</ele>
        <time>2022-01-07T21:58:00Z</time>
      </trkpt>
      <trkpt lat="47.1922" lon="0.18376">
        <ele>51</ele>
        <time>2022-01-07T21:58:49Z</time>
      </trkpt>
      <trkpt lat="47.19187" lon="0.1848">
        <ele>52</ele>
        <time>2022-01-07T21:59:52Z</time>
      </trkpt>
      <trkpt lat="47.19159" lon="0.18512">
        <ele>52</ele>
        <time>2022-01-07T22:00:20Z</time>
      </trkpt>
      <trkpt lat="47.18968" lon="0.18657">
        <ele>54</ele>
        <time>2022-01-07T22:03:12Z</time>
      </trkpt>
      <trkpt lat="47.18852" lon="0.18717">
        <ele>54</ele>
        <time>2022-01-07T22:04:51Z</time>
      </trkpt>
      <trkpt lat="47.18799" lon="0.18744">
        <ele>54</ele>
        <time>2022-01-07T22:05:36Z</time>
      </trkpt>
      <trkpt lat="47.18694" lon="0.18654">
        <ele>55</ele>
        <time>2022-01-07T22:07:13Z</time>
      </trkpt>
      <trkpt lat="47.18583" lon="0.18589">
        <ele>57</ele>
        <time>2022-01-07T22:08:49Z</time>
      </trkpt>
      <trkpt lat="47.18488" lon="0.18489">
        <ele>54</ele>
        <time>2022-01-07T22:10:22Z</time>
      </trkpt>
      <trkpt lat="47.1856" lon="0.18349">
        <ele>56</ele>
        <time>2022-01-07T22:11:58Z</time>
      </trkpt>
      <trkpt lat="47.18668" lon="0.18173">
        <ele>54</ele>
        <time>2022-01-07T22:14:07Z</time>
      </trkpt>
      <trkpt lat="47.18734" lon="0.18185">
        <ele>53</ele>
        <time>2022-01-07T22:15:00Z</time>
      </trkpt>
      <trkpt lat="47.1881" lon="0.17976">
        <ele>52</ele>
        <time>2022-01-07T22:17:09Z</time>
      </trkpt>
      <trkpt lat="47.18857" lon="0.1791">
        <ele>53</ele>
        <time>2022-01-07T22:18:01Z</time>
      </trkpt>
      <trkpt lat="47.18864" lon="0.17861">
        <ele>54</ele>
        <time>2022-01-07T22:18:28Z</time>
      </trkpt>
      <trkpt lat="47.18949" lon="0.17616">
        <ele>49</ele>
        <time>2022-01-07T22:20:58Z</time>
      </trkpt>
      <trkpt lat="47.18949" lon="0.17583">
        <ele>47</ele>
        <time>2022-01-07T22:21:16Z</time>
      </trkpt>
      <trkpt lat="47.18992" lon="0.17476">
        <ele>42</ele>
        <time>2022-01-07T22:22:23Z</time>
      </trkpt>
      <trkpt lat="47.19252" lon="0.17734">
        <ele>40</ele>
        <time>2022-01-07T22:26:35Z</time>
      </trkpt>
      <trkpt lat="47.19414" lon="0.17341">
        <ele>31</ele>
        <time>2022-01-07T22:30:45Z</time>
      </trkpt>
      <trkpt lat="47.195" lon="0.17267">
        <ele>36</ele>
        <time>2022-01-07T22:32:04Z</time>
      </trkpt>
      <trkpt lat="47.19483" lon="0.17254">
        <ele>35</ele>
        <time>2022-01-07T22:32:20Z</time>
      </trkpt>
      <trkpt lat="47.19514" lon="0.1717">
        <ele>38</ele>
        <time>2022-01-07T22:33:12Z</time>
      </trkpt>
      <trkpt lat="47.1944" lon="0.17093">
        <ele>35</ele>
        <time>2022-01-07T22:34:24Z</time>
      </trkpt>
      <trkpt lat="47.19535" lon="0.16841">
        <ele>38</ele>
        <time>2022-01-07T22:37:01Z</time>
      </trkpt>
      <trkpt lat="47.19483" lon="0.16777">
        <ele>37</ele>
        <time>2022-01-07T22:37:55Z</time>
      </trkpt>
      <trkpt lat="47.19459" lon="0.16619">
        <ele>36</ele>
        <time>2022-01-07T22:39:23Z</time>
      </trkpt>
      <trkpt lat="47.19353" lon="0.16233">
        <ele>40</ele>
        <time>2022-01-07T22:43:10Z</time>
      </trkpt>
      <trkpt lat="47.19282" lon="0.1608">
        <ele>35</ele>
        <time>2022-01-07T22:44:51Z</time>
      </trkpt>
      <trkpt lat="47.19341" lon="0.16055">
        <ele>38</ele>
        <time>2022-01-07T22:45:40Z</time>
      </trkpt>
      <trkpt lat="47.19429" lon="0.15927">
        <ele>37</ele>
        <time>2022-01-07T22:47:19Z</time>
      </trkpt>
      <trkpt lat="47.19518" lon="0.15884">
        <ele>32</ele>
        <time>2022-01-07T22:48:34Z</time>
      </trkpt>
      <trkpt lat="47.19636" lon="0.15764">
        <ele>32</ele>
        <time>2022-01-07T22:50:29Z</time>
      </trkpt>
      <trkpt lat="47.19722" lon="0.15613">
        <ele>33</ele>
        <time>2022-01-07T22:52:16Z</time>
      </trkpt>
      <trkpt lat="47.19715" lon="0.15851">
        <ele>33</ele>
        <time>2022-01-07T22:54:26Z</time>
      </trkpt>
      <trkpt lat="47.19845" lon="0.15843">
        <ele>32</ele>
        <time>2022-01-07T22:56:10Z</time>
      </trkpt>
      <trkpt lat="47.20327" lon="0.1595">
        <ele>35</ele>
        <time>2022-01-07T23:02:40Z</time>
      </trkpt>
      <trkpt lat="47.20315" lon="0.16083">
        <ele>36</ele>
        <time>2022-01-07T23:03:53Z</time>
      </trkpt>
      <trkpt lat="47.20313" lon="0.16427">
        <ele>35</ele>
        <time>2022-01-07T23:07:00Z</time>
      </trkpt>
      <trkpt lat="47.20305" lon="0.16652">
        <ele>35</ele>
        <time>2022-01-07T23:09:03Z</time>
      </trkpt>
      <trkpt lat="47.20492" lon="0.16672">
        <ele>33</ele>
        <time>2022-01-07T23:11:33Z</time>
      </trkpt>
      <trkpt lat="47.20542" lon="0.1657">
        <ele>32</ele>
        <time>2022-01-07T23:12:41Z</time>
      </trkpt>
      <trkpt lat="47.20546" lon="0.16499">
        <ele>32</ele>
        <time>2022-01-07T23:13:20Z</time>
      </trkpt>
      <trkpt lat="47.20563" lon="0.1618">
        <ele>34</ele>
        <time>2022-01-07T23:16:14Z</time>
      </trkpt>
      <trkpt lat="47.20561" lon="0.16075">
        <ele>37</ele>
        <time>2022-01-07T23:17:11Z</time>
      </trkpt>
      <trkpt lat="47.20532" lon="0.15927">
        <ele>38</ele>
        <time>2022-01-07T23:18:35Z</time>
      </trkpt>
      <trkpt lat="47.20579" lon="0.1582">
        <ele>38</ele>
        <time>2022-01-07T23:19:44Z</time>
      </trkpt>
      <trkpt lat="47.20601" lon="0.15567">
        <ele>37</ele>
        <time>2022-01-07T23:22:03Z</time>
      </trkpt>
      <trkpt lat="47.20676" lon="0.15629">
        <ele>38</ele>
        <time>2022-01-07T23:23:12Z</time>
      </trkpt>
      <trkpt lat="47.20719" lon="0.15618">
        <ele>40</ele>
        <time>2022-01-07T23:23:47Z</time>
      </trkpt>
      <trkpt lat="47.21045" lon="0.15672">
        <ele>42</ele>
        <time>2022-01-07T23:28:10Z</time>
      </trkpt>
      <trkpt lat="47.21085" lon="0.15419">
        <ele>44</ele>
        <time>2022-01-07T23:30:31Z</time>
      </trkpt>
      <trkpt lat="47.21031" lon="0.15294">
        <ele>46</ele>
        <time>2022-01-07T23:31:51Z</time>
      </trkpt>
      <trkpt lat="47.21347" lon="0.15358">
        <ele>38</ele>
        <time>2022-01-07T23:36:07Z</time>
      </trkpt>
      <trkpt lat="47.21345" lon="0.15185">
        <ele>36</ele>
        <time>2022-01-07T23:37:41Z</time>
      </trkpt>
      <trkpt lat="47.21364" lon="0.14978">
        <ele>34</ele>
        <time>2022-01-07T23:39:35Z</time>
      </trkpt>
      <trkpt lat="47.21435" lon="0.14922">
        <ele>34</ele>
        <time>2022-01-07T23:40:39Z</time>
      </trkpt>
      <trkpt lat="47.21449" lon="0.14889">
        <ele>35</ele>
        <time>2022-01-07T23:41:00Z</time>
      </trkpt>
      <trkpt lat="47.21352" lon="0.14646">
        <ele>34</ele>
        <time>2022-01-07T23:43:34Z</time>
      </trkpt>
      <trkpt lat="47.21367" lon="0.14618">
        <ele>34</ele>
        <time>2022-01-07T23:43:53Z</time>
      </trkpt>
      <trkpt lat="47.21648" lon="0.14677">
        <ele>33</ele>
        <time>2022-01-07T23:47:40Z</time>
      </trkpt>
      <trkpt lat="47.21806" lon="0.1471">
        <ele>33</ele>
        <time>2022-01-07T23:49:48Z</time>
      </trkpt>
      <trkpt lat="47.21804" lon="0.14516">
        <ele>33</ele>
        <time>2022-01-07T23:51:33Z</time>
      </trkpt>
      <trkpt lat="47.21818" lon="0.1436">
        <ele>32</ele>
        <time>2022-01-07T23:52:59Z</time>
      </trkpt>
      <trkpt lat="47.21789" lon="0.14233">
        <ele>32</ele>
        <time>2022-01-07T23:54:12Z</time>
      </trkpt>
      <trkpt lat="47.22075" lon="0.14251">
        <ele>33</ele>
        <time>2022-01-07T23:58:01Z</time>
      </trkpt>
      <trkpt lat="47.22198" lon="0.14261">
        <ele>32</ele>
        <time>2022-01-07T23:59:40Z</time>
      </trkpt>
      <trkpt lat="47.22371" lon="0.14223">
        <ele>34</ele>
        <time>2022-01-08T00:02:00Z</time>
      </trkpt>
      <trkpt lat="47.22604" lon="0.14151">
        <ele>33</ele>
        <time>2022-01-08T00:05:10Z</time>
      </trkpt>
      <trkpt lat="47.22787" lon="0.141">
        <ele>32</ele>
        <time>2022-01-08T00:07:40Z</time>
      </trkpt>
      <trkpt lat="47.22822" lon="0.14377">
        <ele>33</ele>
        <time>2022-01-08T00:10:13Z</time>
      </trkpt>
      <trkpt lat="47.2286" lon="0.14317">
        <ele>33</ele>
        <time>2022-01-08T00:10:57Z</time>
      </trkpt>
      <trkpt lat="47.22864" lon="0.14378">
        <ele>32</ele>
        <time>2022-01-08T00:11:31Z</time>
      </trkpt>
      <trkpt lat="47.23153" lon="0.14395">
        <ele>32</ele>
        <time>2022-01-08T00:15:22Z</time>
      </trkpt>
      <trkpt lat="47.23166" lon="0.14162">
        <ele>33</ele>
        <time>2022-01-08T00:17:29Z</time>
      </trkpt>
      <trkpt lat="47.23202" lon="0.14165">
        <ele>33</ele>
        <time>2022-01-08T00:17:58Z</time>
      </trkpt>
      <trkpt lat="47.23322" lon="0.14168">
        <ele>34</ele>
        <time>2022-01-08T00:19:34Z</time>
      </trkpt>
      <trkpt lat="47.23317" lon="0.14072">
        <ele>34</ele>
        <time>2022-01-08T00:20:27Z</time>
      </trkpt>
      <trkpt lat="47.23268" lon="0.13969">
        <ele>32</ele>
        <time>2022-01-08T00:21:35Z</time>
      </trkpt>
      <trkpt lat="47.23256" lon="0.13852">
        <ele>33</ele>
        <time>2022-01-08T00:22:39Z</time>
      </trkpt>
      <trkpt lat="47.23177" lon="0.1384">
        <ele>35</ele>
        <time>2022-01-08T00:23:43Z</time>
      </trkpt>
      <trkpt lat="47.23112" lon="0.13868">
        <ele>35</ele>
        <time>2022-01-08T00:24:37Z</time>
      </trkpt>
      <trkpt lat="47.23027" lon="0.13755">
        <ele>31</ele>
        <time>2022-01-08T00:26:09Z</time>
      </trkpt>
      <trkpt lat="47.22753" lon="0.13688">
        <ele>32</ele>
        <time>2022-01-08T00:29:51Z</time>
      </trkpt>
      <trkpt lat="47.22547" lon="0.13628">
        <ele>34</ele>
        <time>2022-01-08T00:32:39Z</time>
      </trkpt>
      <trkpt lat="47.22493" lon="0.13638">
        <ele>34</ele>
        <time>2022-01-08T00:33:23Z</time>
      </trkpt>
      <trkpt lat="47.2246" lon="0.13425">
        <ele>33</ele>
        <time>2022-01-08T00:35:22Z</time>
      </trkpt>
      <trkpt lat="47.2237" lon="0.13437">
        <ele>33</ele>
        <time>2022-01-08T00:36:34Z</time>
      </trkpt>
      <trkpt lat="47.223" lon="0.13208">
        <ele>33</ele>
        <time>2022-01-08T00:38:51Z</time>
      </trkpt>
      <trkpt lat="47.2237" lon="0.13074">
        <ele>33</ele>
        <time>2022-01-08T00:40:23Z</time>
      </trkpt>
      <trkpt lat="47.22591" lon="0.12882">
        <ele>34</ele>
        <time>2022-01-08T00:43:48Z</time>
      </trkpt>
      <trkpt lat="47.22474" lon="0.12633">
        <ele>32</ele>
        <time>2022-01-08T00:46:33Z</time>
      </trkpt>
    </trkseg>
  </trk>
</gpx>